createdAt,value
2023-03-12T00:01:23.455Z,3.10
2023-03-12T00:03:50.577Z,3.78
2023-03-12T00:06:18.541Z,3.28
2023-03-12T00:08:45.131Z,4.82
2023-03-12T00:11:14.559Z,3.20
2023-03-12T00:13:41.204Z,4.10
2023-03-12T00:16:10.458Z,4.53
2023-03-12T00:18:37.422Z,5.57
2023-03-12T00:21:04.786Z,6.95
2023-03-12T00:23:31.597Z,4.15
2023-03-12T00:26:02.547Z,4.78
2023-03-12T00:28:29.582Z,3.40
2023-03-12T00:30:58.353Z,3.10
2023-03-12T00:33:26.049Z,3.72
2023-03-12T00:35:53.493Z,3.75
2023-03-12T00:38:20.280Z,3.72
2023-03-12T00:40:47.223Z,4.32
2023-03-12T00:43:14.259Z,3.70
2023-03-12T00:45:40.857Z,4.55
2023-03-12T00:48:07.642Z,3.83
2023-03-12T00:50:34.252Z,3.17
2023-03-12T00:53:01.262Z,4.18
2023-03-12T00:55:27.783Z,4.47
2023-03-12T00:57:54.331Z,5.05
2023-03-12T01:00:21.509Z,4.22
2023-03-12T01:02:48.101Z,4.47
2023-03-12T01:05:15.231Z,4.80
2023-03-12T01:07:41.939Z,4.90
2023-03-12T01:10:09.838Z,4.53
2023-03-12T01:12:37.125Z,4.63
2023-03-12T01:15:05.603Z,6.05
2023-03-12T01:17:32.118Z,4.93
2023-03-12T01:20:00.297Z,4.38
2023-03-12T01:22:28.472Z,3.88
2023-03-12T01:24:56.118Z,5.75
2023-03-12T01:27:23.785Z,4.43
2023-03-12T01:29:51.167Z,4.45
2023-03-12T01:32:19.394Z,4.88
2023-03-12T01:34:47.137Z,4.47
2023-03-12T01:37:15.308Z,5.93
2023-03-12T01:39:43.025Z,4.40
2023-03-12T01:42:11.041Z,4.68
2023-03-12T01:44:58.857Z,4.47
2023-03-12T01:47:29.104Z,4.53
2023-03-12T01:49:56.120Z,5.10
2023-03-12T01:52:30.877Z,4.57
2023-03-12T01:55:06.107Z,5.68
2023-03-12T02:00:13.926Z,8.10
2023-03-12T02:02:41.673Z,6.30
2023-03-12T02:05:17.312Z,5.07
2023-03-12T02:07:43.831Z,5.32
2023-03-12T02:10:11.764Z,5.90
2023-03-12T02:12:38.370Z,5.25
2023-03-12T02:15:05.631Z,5.22
2023-03-12T02:17:32.549Z,7.22
2023-03-12T02:22:54.460Z,3.50
2023-03-12T02:28:06.850Z,4.10
2023-03-12T02:30:34.167Z,3.45
2023-03-12T02:33:05.524Z,3.92
2023-03-12T02:35:32.147Z,4.35
2023-03-12T02:37:58.906Z,4.00
2023-03-12T02:40:33.983Z,4.10
2023-03-12T02:43:01.577Z,4.13
2023-03-12T02:45:29.904Z,3.58
2023-03-12T02:47:56.430Z,3.35
2023-03-12T02:50:23.156Z,2.78
2023-03-12T02:52:49.679Z,3.67
2023-03-12T02:55:16.271Z,4.10
2023-03-12T02:57:43.822Z,3.38
2023-03-12T03:00:12.921Z,3.30
2023-03-12T03:02:40.405Z,2.72
2023-03-12T03:05:07.910Z,3.00
2023-03-12T03:07:34.485Z,3.75
2023-03-12T03:10:04.211Z,2.92
2023-03-12T03:12:32.658Z,2.92
2023-03-12T03:14:59.266Z,3.25
2023-03-12T03:17:26.736Z,3.15
2023-03-12T03:19:53.360Z,2.90
2023-03-12T03:22:21.597Z,2.72
2023-03-12T03:24:48.197Z,3.28
2023-03-12T03:27:15.569Z,2.80
2023-03-12T03:29:42.174Z,2.80
2023-03-12T03:32:08.745Z,3.22
2023-03-12T03:34:35.370Z,2.83
2023-03-12T03:37:01.928Z,2.42
2023-03-12T03:39:29.682Z,2.72
2023-03-12T03:41:56.392Z,2.90
2023-03-12T03:44:24.139Z,3.55
2023-03-12T03:46:50.691Z,2.70
2023-03-12T03:49:17.335Z,3.17
2023-03-12T03:51:43.924Z,2.60
2023-03-12T03:54:11.233Z,2.72
2023-03-12T03:56:38.268Z,2.47
2023-03-12T03:59:04.850Z,2.80
2023-03-12T04:01:31.517Z,2.55
2023-03-12T04:03:59.085Z,2.33
2023-03-12T04:06:26.343Z,2.47
2023-03-12T04:08:52.898Z,2.30
2023-03-12T04:11:21.697Z,2.72
2023-03-12T04:13:49.492Z,1.60
2023-03-12T04:16:17.480Z,2.22
2023-03-12T04:18:44.384Z,2.03
2023-03-12T04:21:12.565Z,2.55
2023-03-12T04:23:39.354Z,2.47
2023-03-12T04:26:07.378Z,2.63
2023-03-12T04:28:34.743Z,2.55
2023-03-12T04:31:04.915Z,3.30
2023-03-12T04:33:34.710Z,1.67
2023-03-12T04:36:01.341Z,2.20
2023-03-12T04:38:28.711Z,1.77
2023-03-12T04:41:07.391Z,2.05
2023-03-12T04:43:34.769Z,1.80
2023-03-12T04:46:01.332Z,2.80
2023-03-12T04:48:28.862Z,2.08
2023-03-12T04:50:55.540Z,2.03
2023-03-12T04:53:22.881Z,2.03
2023-03-12T04:55:50.359Z,2.38
2023-03-12T04:58:18.164Z,1.67
2023-03-12T05:00:45.089Z,1.88
2023-03-12T05:03:12.608Z,2.42
2023-03-12T05:05:39.208Z,1.88
2023-03-12T05:08:05.954Z,2.47
2023-03-12T05:10:32.836Z,2.08
2023-03-12T05:12:59.502Z,1.52
2023-03-12T05:15:26.485Z,2.40
2023-03-12T05:17:54.838Z,2.30
2023-03-12T05:20:21.980Z,2.20
2023-03-12T05:22:48.881Z,1.77
2023-03-12T05:25:15.479Z,2.13
2023-03-12T05:27:42.050Z,1.90
2023-03-12T05:30:09.793Z,1.50
2023-03-12T05:32:36.469Z,1.15
2023-03-12T05:35:03.285Z,2.63
2023-03-12T05:37:29.878Z,1.48
2023-03-12T05:39:56.603Z,2.35
2023-03-12T05:42:25.319Z,3.22
2023-03-12T05:44:52.407Z,3.20
2023-03-12T05:47:19.588Z,1.75
2023-03-12T05:49:46.185Z,2.03
2023-03-12T05:52:12.719Z,2.25
2023-03-12T05:54:39.479Z,2.38
2023-03-12T05:57:06.213Z,2.15
2023-03-12T05:59:32.885Z,2.83
2023-03-12T06:01:59.571Z,2.13
2023-03-12T06:04:26.214Z,1.73
2023-03-12T06:06:52.806Z,2.92
2023-03-12T06:09:19.469Z,2.17
2023-03-12T06:11:46.026Z,1.90
2023-03-12T06:14:13.133Z,2.55
2023-03-12T06:16:39.819Z,2.15
2023-03-12T06:19:07.703Z,2.28
2023-03-12T06:21:35.612Z,1.77
2023-03-12T06:24:03.176Z,2.08
2023-03-12T06:26:29.751Z,1.85
2023-03-12T06:28:56.589Z,1.75
2023-03-12T06:31:24.211Z,3.28
2023-03-12T06:33:51.161Z,3.00
2023-03-12T06:36:18.117Z,2.97
2023-03-12T06:38:44.687Z,1.92
2023-03-12T06:41:15.632Z,2.45
2023-03-12T06:43:43.315Z,2.30
2023-03-12T06:46:14.884Z,2.03
2023-03-12T06:48:41.691Z,2.10
2023-03-12T06:51:09.671Z,2.40
2023-03-12T06:53:36.435Z,2.35
2023-03-12T06:56:03.641Z,1.95
2023-03-12T06:58:30.694Z,2.15
2023-03-12T07:00:57.278Z,1.88
2023-03-12T07:03:23.926Z,2.17
2023-03-12T07:05:51.302Z,2.20
2023-03-12T07:08:18.971Z,2.25
2023-03-12T07:10:46.179Z,2.55
2023-03-12T07:13:13.019Z,2.35
2023-03-12T07:15:39.784Z,2.03
2023-03-12T07:18:08.333Z,2.72
2023-03-12T07:20:40.795Z,7.68
2023-03-12T07:23:07.594Z,4.38
2023-03-12T07:25:37.354Z,3.55
2023-03-12T07:28:04.399Z,5.50
2023-03-12T07:30:33.611Z,2.90
2023-03-12T07:33:05.033Z,2.08
2023-03-12T07:35:32.933Z,2.38
2023-03-12T07:38:01.027Z,2.70
2023-03-12T07:40:29.002Z,3.05
2023-03-12T07:42:55.614Z,2.58
2023-03-12T07:45:22.336Z,2.17
2023-03-12T07:47:49.739Z,3.10
2023-03-12T07:50:18.138Z,4.03
2023-03-12T07:52:45.231Z,2.90
2023-03-12T07:55:12.211Z,2.35
2023-03-12T07:57:38.979Z,3.45
2023-03-12T08:00:07.904Z,5.07
2023-03-12T08:02:35.870Z,4.13
2023-03-12T08:05:02.837Z,2.88
2023-03-12T08:07:32.500Z,3.00
2023-03-12T08:10:00.526Z,2.25
2023-03-12T08:12:28.020Z,3.47
2023-03-12T08:14:54.797Z,2.00
2023-03-12T08:17:21.472Z,2.60
2023-03-12T08:19:48.261Z,2.40
2023-03-12T08:22:14.825Z,3.03
2023-03-12T08:24:41.421Z,2.63
2023-03-12T08:27:07.953Z,3.10
2023-03-12T08:29:34.772Z,2.53
2023-03-12T08:32:05.232Z,1.65
2023-03-12T08:34:33.971Z,2.58
2023-03-12T08:37:01.344Z,2.72
2023-03-12T08:39:27.863Z,2.20
2023-03-12T08:41:55.439Z,2.80
2023-03-12T08:44:23.323Z,2.72
2023-03-12T08:46:50.275Z,3.13
2023-03-12T08:49:17.162Z,2.60
2023-03-12T08:51:43.672Z,2.35
2023-03-12T08:54:10.327Z,3.13
2023-03-12T08:56:41.914Z,2.88
2023-03-12T08:59:09.919Z,2.95
2023-03-12T09:01:36.616Z,2.92
2023-03-12T09:04:04.060Z,3.85
2023-03-12T09:06:30.758Z,4.32
2023-03-12T09:08:57.765Z,2.38
2023-03-12T09:11:24.314Z,3.42
2023-03-12T09:14:15.280Z,2.80
2023-03-12T09:16:37.617Z,3.40
2023-03-12T09:19:04.507Z,2.10
2023-03-12T09:21:31.102Z,4.18
2023-03-12T09:23:57.765Z,4.97
2023-03-12T09:26:24.315Z,2.45
2023-03-12T09:28:50.976Z,2.42
2023-03-12T09:31:17.729Z,2.80
2023-03-12T09:33:44.696Z,2.28
2023-03-12T09:36:11.294Z,3.30
2023-03-12T09:38:38.074Z,3.42
2023-03-12T09:41:06.013Z,2.55
2023-03-12T09:43:38.698Z,2.55
2023-03-12T09:46:13.777Z,1.65
2023-03-12T09:48:40.636Z,3.63
2023-03-12T09:51:17.212Z,2.72
2023-03-12T09:53:51.214Z,4.38
2023-03-12T09:56:20.500Z,2.13
2023-03-12T09:58:48.380Z,3.25
2023-03-12T10:09:54.832Z,2.92
2023-03-12T10:26:25.635Z,2.20
2023-03-12T10:28:59.074Z,3.05
2023-03-12T10:31:30.902Z,2.58
2023-03-12T10:34:01.305Z,1.88
2023-03-12T10:39:06.896Z,3.08
2023-03-12T10:41:34.900Z,3.55
2023-03-12T10:44:07.747Z,2.10
2023-03-12T10:46:51.611Z,2.45
2023-03-12T10:52:21.005Z,4.07
2023-03-12T10:54:50.153Z,5.35
2023-03-12T10:57:17.195Z,4.25
2023-03-12T10:59:47.730Z,3.30
2023-03-12T11:05:21.714Z,1.85
2023-03-12T11:07:48.606Z,2.30
2023-03-12T11:10:20.362Z,2.38
2023-03-12T11:13:05.447Z,2.65
2023-03-12T11:15:41.783Z,2.05
2023-03-12T11:21:17.347Z,1.88
2023-03-12T11:24:04.368Z,2.42
2023-03-12T11:34:37.439Z,3.10
2023-03-12T11:40:10.018Z,2.55
2023-03-12T11:42:52.115Z,1.83
2023-03-12T11:45:51.046Z,1.70
2023-03-12T11:51:33.450Z,2.10
2023-03-12T11:56:56.149Z,2.13
2023-03-12T11:59:47.764Z,3.28
2023-03-12T12:05:11.767Z,2.00
2023-03-12T12:13:18.494Z,3.53
2023-03-12T12:18:57.285Z,2.60
2023-03-12T12:22:03.751Z,3.08
2023-03-12T12:25:10.305Z,3.35
2023-03-12T12:27:44.500Z,2.08
2023-03-12T12:36:29.771Z,2.25
2023-03-12T12:39:05.106Z,1.63
2023-03-12T12:41:38.102Z,3.17
2023-03-12T12:44:12.860Z,2.30
2023-03-12T12:46:45.236Z,2.13
2023-03-12T12:49:19.456Z,1.98
2023-03-12T12:51:50.794Z,2.10
2023-03-12T12:57:00.670Z,2.45
2023-03-12T12:59:39.089Z,1.95
2023-03-12T13:02:17.152Z,2.25
2023-03-12T13:04:44.512Z,2.58
2023-03-12T13:09:52.384Z,2.90
2023-03-12T13:18:17.232Z,1.55
2023-03-12T13:21:08.770Z,2.05
2023-03-12T13:32:10.835Z,1.65
2023-03-12T13:34:45.638Z,2.58
2023-03-12T13:37:20.443Z,1.80
2023-03-12T13:39:47.026Z,1.58
2023-03-12T13:45:22.270Z,2.17
2023-03-12T13:47:52.033Z,1.52
2023-03-12T13:50:18.596Z,2.72
2023-03-12T13:53:08.072Z,1.55
2023-03-12T13:55:37.636Z,2.40
2023-03-12T14:03:33.730Z,3.28
2023-03-12T14:06:10.697Z,3.15
2023-03-12T14:11:31.356Z,1.75
2023-03-12T14:16:42.033Z,1.52
2023-03-12T14:19:13.723Z,1.65
2023-03-12T14:21:44.521Z,2.33
2023-03-12T14:24:33.714Z,2.20
2023-03-12T14:27:02.505Z,2.05
2023-03-12T14:32:19.409Z,2.65
2023-03-12T14:34:53.878Z,2.90
2023-03-12T14:37:28.137Z,3.53
2023-03-12T14:40:00.567Z,1.67
2023-03-12T14:42:34.082Z,4.22
2023-03-12T14:45:11.489Z,3.25
2023-03-12T14:50:21.661Z,1.73
2023-03-12T14:52:48.347Z,2.22
2023-03-12T14:55:18.817Z,1.88
2023-03-12T14:57:45.937Z,1.80
2023-03-12T15:00:27.850Z,1.38
2023-03-12T15:02:57.754Z,1.67
2023-03-12T15:07:56.050Z,1.75
2023-03-12T15:10:26.032Z,1.90
2023-03-12T15:12:56.207Z,1.10
2023-03-12T15:18:08.553Z,2.25
2023-03-12T15:20:35.944Z,3.63
2023-03-12T15:23:04.554Z,3.25
2023-03-12T15:25:33.898Z,1.25
2023-03-12T15:30:44.181Z,1.73
2023-03-12T15:33:27.641Z,2.00
2023-03-12T15:38:44.320Z,1.63
2023-03-12T15:41:20.742Z,1.52
2023-03-12T15:46:18.015Z,1.63
2023-03-12T15:48:51.111Z,1.80
2023-03-12T15:51:36.147Z,1.98
2023-03-12T15:57:12.212Z,3.08
2023-03-12T15:59:38.776Z,2.70
2023-03-12T16:02:11.263Z,1.95
2023-03-12T16:04:37.935Z,2.30
2023-03-12T16:07:12.017Z,1.58
2023-03-12T16:09:38.593Z,1.40
2023-03-12T16:12:05.368Z,1.38
2023-03-12T16:14:36.211Z,1.35
2023-03-12T16:17:02.932Z,1.73
2023-03-12T16:19:33.666Z,1.35
2023-03-12T16:22:00.304Z,2.75
2023-03-12T16:24:26.822Z,1.52
2023-03-12T16:26:56.748Z,1.02
2023-03-12T16:29:32.148Z,2.20
2023-03-12T16:31:59.454Z,1.95
2023-03-12T16:34:28.105Z,2.15
2023-03-12T16:36:54.710Z,1.55
2023-03-12T16:39:21.281Z,2.03
2023-03-12T16:41:48.034Z,1.02
2023-03-12T16:44:19.946Z,1.60
2023-03-12T16:46:46.622Z,1.92
2023-03-12T16:49:16.458Z,3.13
2023-03-12T16:51:43.192Z,1.17
2023-03-12T16:54:12.005Z,1.63
2023-03-12T16:56:43.501Z,1.73
2023-03-12T16:59:23.217Z,1.25
2023-03-12T17:01:50.032Z,2.55
2023-03-12T17:04:16.639Z,2.60
2023-03-12T17:06:43.176Z,2.10
2023-03-12T17:09:09.723Z,1.25
2023-03-12T17:11:37.986Z,2.20
2023-03-12T17:14:19.057Z,1.60
2023-03-12T17:16:45.728Z,2.38
2023-03-12T17:19:12.325Z,1.95
2023-03-12T17:21:39.622Z,1.92
2023-03-12T17:24:06.599Z,1.77
2023-03-12T17:26:33.891Z,2.45
2023-03-12T17:29:00.431Z,2.53
2023-03-12T17:31:27.137Z,2.50
2023-03-12T17:33:53.668Z,1.50
2023-03-12T17:36:20.205Z,2.03
2023-03-12T17:38:48.947Z,1.55
2023-03-12T17:41:26.002Z,3.72
2023-03-12T17:43:54.772Z,2.22
2023-03-12T17:46:21.887Z,2.00
2023-03-12T17:48:48.483Z,2.33
2023-03-12T17:51:15.005Z,1.80
2023-03-12T17:53:42.054Z,1.23
2023-03-12T17:56:09.212Z,1.80
2023-03-12T17:58:35.921Z,1.23
2023-03-12T18:01:02.419Z,1.15
2023-03-12T18:03:29.075Z,1.48
2023-03-12T18:05:55.863Z,1.20
2023-03-12T18:08:22.423Z,0.95
2023-03-12T18:10:49.098Z,1.20
2023-03-12T18:13:15.837Z,1.13
2023-03-12T18:15:42.459Z,1.58
2023-03-12T18:18:09.093Z,2.33
2023-03-12T18:20:39.498Z,0.70
2023-03-12T18:23:06.890Z,1.40
2023-03-12T18:25:33.492Z,1.00
2023-03-12T18:28:00.055Z,1.02
2023-03-12T18:30:28.241Z,1.65
2023-03-12T18:32:54.960Z,1.15
2023-03-12T18:35:22.707Z,1.15
2023-03-12T18:37:51.901Z,0.70
2023-03-12T18:40:18.440Z,1.05
2023-03-12T18:42:44.999Z,1.30
2023-03-12T18:45:12.429Z,0.73
2023-03-12T18:47:39.639Z,1.40
2023-03-12T18:50:08.246Z,1.23
2023-03-12T18:52:35.571Z,0.75
2023-03-12T18:55:02.156Z,0.98
2023-03-12T18:57:28.705Z,0.95
2023-03-12T18:59:56.022Z,1.23
2023-03-12T19:02:23.793Z,1.23
2023-03-12T19:04:51.381Z,1.08
2023-03-12T19:07:19.701Z,1.23
2023-03-12T19:09:46.925Z,0.80
2023-03-12T19:12:13.534Z,1.02
2023-03-12T19:14:40.159Z,1.17
2023-03-12T19:17:06.733Z,0.98
2023-03-12T19:19:33.250Z,1.00
2023-03-12T19:21:59.886Z,1.08
2023-03-12T19:24:26.559Z,1.02
2023-03-12T19:26:53.121Z,1.33
2023-03-12T19:29:19.671Z,1.33
2023-03-12T19:31:46.365Z,1.40
2023-03-12T19:34:12.979Z,1.08
2023-03-12T19:36:39.587Z,1.20
2023-03-12T19:39:18.795Z,1.00
2023-03-12T19:41:47.386Z,0.93
2023-03-12T19:44:13.912Z,1.05
2023-03-12T19:46:43.071Z,1.00
2023-03-12T19:49:10.001Z,0.98
2023-03-12T19:51:36.669Z,1.23
2023-03-12T19:54:03.320Z,1.27
2023-03-12T19:56:29.862Z,1.30
2023-03-12T19:58:56.415Z,1.42
2023-03-12T20:01:23.083Z,1.55
2023-03-12T20:03:49.640Z,1.65
2023-03-12T20:06:16.381Z,1.75
2023-03-12T20:08:44.563Z,1.88
2023-03-12T20:11:11.374Z,1.17
2023-03-12T20:13:39.131Z,3.05
2023-03-12T20:16:07.664Z,2.00
2023-03-12T20:18:34.412Z,1.83
2023-03-12T20:21:01.026Z,1.67
2023-03-12T20:23:27.539Z,1.67
2023-03-12T20:25:54.059Z,1.52
2023-03-12T20:28:20.704Z,1.77
2023-03-12T20:30:48.515Z,1.45
2023-03-12T20:33:15.290Z,1.40
2023-03-12T20:35:41.871Z,1.48
2023-03-12T20:38:08.678Z,1.25
2023-03-12T20:40:35.367Z,1.60
2023-03-12T20:43:04.910Z,1.27
2023-03-12T20:45:32.781Z,1.27
2023-03-12T20:48:00.148Z,1.30
2023-03-12T20:50:27.669Z,0.80
2023-03-12T20:52:54.313Z,1.30
2023-03-12T20:55:20.853Z,1.00
2023-03-12T20:57:47.378Z,1.13
2023-03-12T21:00:14.322Z,1.05
2023-03-12T21:02:40.917Z,0.70
2023-03-12T21:05:10.090Z,1.05
2023-03-12T21:07:36.785Z,1.42
2023-03-12T21:10:03.915Z,0.90
2023-03-12T21:12:30.456Z,0.52
2023-03-12T21:15:06.054Z,0.73
2023-03-12T21:17:34.445Z,0.95
2023-03-12T21:20:02.302Z,0.95
2023-03-12T21:22:30.464Z,0.70
2023-03-12T21:24:57.340Z,1.10
2023-03-12T21:27:24.330Z,1.33
2023-03-12T21:29:50.914Z,1.33
2023-03-12T21:32:17.500Z,0.70
2023-03-12T21:34:44.121Z,0.60
2023-03-12T21:37:10.667Z,0.85
2023-03-12T21:39:37.184Z,0.93
2023-03-12T21:42:03.902Z,1.15
2023-03-12T21:44:30.426Z,0.63
2023-03-12T21:46:57.041Z,0.65
2023-03-12T21:49:23.669Z,0.68
2023-03-12T21:51:50.225Z,2.28
2023-03-12T21:54:16.757Z,0.68
2023-03-12T21:56:43.430Z,0.77
2023-03-12T21:59:10.721Z,0.77
2023-03-12T22:01:37.473Z,0.68
2023-03-12T22:04:05.666Z,1.23
2023-03-12T22:06:32.260Z,0.80
2023-03-12T22:08:58.798Z,1.23
2023-03-12T22:11:25.318Z,0.98
2023-03-12T22:13:51.884Z,0.75
2023-03-12T22:16:18.500Z,1.05
2023-03-12T22:18:46.617Z,0.98
2023-03-12T22:21:19.257Z,0.80
2023-03-12T22:23:48.209Z,0.80
2023-03-12T22:26:15.031Z,1.25
2023-03-12T22:28:41.666Z,1.63
2023-03-12T22:31:09.397Z,0.95
2023-03-12T22:33:36.871Z,1.15
2023-03-12T22:36:08.001Z,1.20
2023-03-12T22:38:36.776Z,1.45
2023-03-12T22:44:00.944Z,1.83
2023-03-12T22:46:28.096Z,2.03
2023-03-12T22:48:57.043Z,0.90
2023-03-12T22:51:24.807Z,2.47
2023-03-12T22:53:51.462Z,2.75
2023-03-12T22:56:18.222Z,1.83
2023-03-12T22:58:44.986Z,2.20
2023-03-12T23:01:16.044Z,2.30
2023-03-12T23:03:43.926Z,1.73
2023-03-12T23:06:12.623Z,2.00
2023-03-12T23:08:39.650Z,2.30
2023-03-12T23:11:07.760Z,2.22
2023-03-12T23:13:36.506Z,2.22
2023-03-12T23:16:07.137Z,2.47
2023-03-12T23:18:34.832Z,2.75
2023-03-12T23:21:04.668Z,2.03
2023-03-12T23:23:32.006Z,2.47
2023-03-12T23:26:00.174Z,2.47
2023-03-12T23:28:28.650Z,2.55
2023-03-12T23:30:58.173Z,3.00
2023-03-12T23:33:25.726Z,2.85
2023-03-12T23:36:02.488Z,4.40
2023-03-12T23:38:30.254Z,2.08
2023-03-12T23:41:11.346Z,3.50
2023-03-12T23:43:38.127Z,2.67
2023-03-12T23:46:06.387Z,2.65
2023-03-12T23:48:34.038Z,3.15
2023-03-12T23:51:07.999Z,3.05
2023-03-12T23:53:35.483Z,2.83
2023-03-12T23:56:04.670Z,3.10
2023-03-12T23:58:31.551Z,2.92
